sensor_id;sensor_type;location;lat;lon;timestamp;P1;durP1;ratioP1;P2;durP2;ratioP2
37241;SDS011;23135;51.078;12.108;2022-12-20T00:01:55;13.07;;;6.18;;
37241;SDS011;23135;51.078;12.108;2022-12-20T00:04:21;15.73;;;7.93;;
37241;SDS011;23135;51.078;12.108;2022-12-20T00:06:46;13.43;;;6.57;;
37241;SDS011;23135;51.078;12.108;2022-12-20T00:09:12;18.15;;;8.52;;
37241;SDS011;23135;51.078;12.108;2022-12-20T00:11:38;12.20;;;6.30;;
37241;SDS011;23135;51.078;12.108;2022-12-20T00:14:05;15.00;;;6.82;;
37241;SDS011;23135;51.078;12.108;2022-12-20T00:16:34;17.02;;;6.90;;
37241;SDS011;23135;51.078;12.108;2022-12-20T00:19:02;14.60;;;6.85;;
37241;SDS011;23135;51.078;12.108;2022-12-20T00:21:30;15.77;;;7.30;;
37241;SDS011;23135;51.078;12.108;2022-12-20T00:23:57;14.05;;;6.28;;
37241;SDS011;23135;51.078;12.108;2022-12-20T00:26:25;16.55;;;7.05;;
37241;SDS011;23135;51.078;12.108;2022-12-20T00:28:52;13.25;;;6.45;;
37241;SDS011;23135;51.078;12.108;2022-12-20T00:31:18;14.68;;;7.70;;
37241;SDS011;23135;51.078;12.108;2022-12-20T00:33:46;18.48;;;7.70;;
37241;SDS011;23135;51.078;12.108;2022-12-20T00:36:13;17.60;;;7.03;;
37241;SDS011;23135;51.078;12.108;2022-12-20T00:38:39;16.98;;;7.75;;
37241;SDS011;23135;51.078;12.108;2022-12-20T00:41:06;13.30;;;7.03;;
37241;SDS011;23135;51.078;12.108;2022-12-20T00:43:36;16.77;;;6.93;;
37241;SDS011;23135;51.078;12.108;2022-12-20T00:46:04;13.77;;;6.95;;
37241;SDS011;23135;51.078;12.108;2022-12-20T00:48:31;13.82;;;6.00;;
37241;SDS011;23135;51.078;12.108;2022-12-20T00:50:58;15.38;;;6.43;;
37241;SDS011;23135;51.078;12.108;2022-12-20T00:53:25;16.63;;;6.80;;
37241;SDS011;23135;51.078;12.108;2022-12-20T00:55:51;17.13;;;7.43;;
37241;SDS011;23135;51.078;12.108;2022-12-20T00:58:17;19.00;;;7.57;;
37241;SDS011;23135;51.078;12.108;2022-12-20T01:00:42;17.45;;;7.57;;
37241;SDS011;23135;51.078;12.108;2022-12-20T01:03:08;17.15;;;7.97;;
37241;SDS011;23135;51.078;12.108;2022-12-20T01:05:34;12.70;;;6.15;;
37241;SDS011;23135;51.078;12.108;2022-12-20T01:07:59;14.52;;;6.70;;
37241;SDS011;23135;51.078;12.108;2022-12-20T01:10:25;14.63;;;6.65;;
37241;SDS011;23135;51.078;12.108;2022-12-20T01:12:51;15.82;;;7.55;;
37241;SDS011;23135;51.078;12.108;2022-12-20T01:15:18;14.45;;;6.30;;
37241;SDS011;23135;51.078;12.108;2022-12-20T01:17:45;14.85;;;7.22;;
37241;SDS011;23135;51.078;12.108;2022-12-20T01:20:11;13.30;;;6.28;;
37241;SDS011;23135;51.078;12.108;2022-12-20T01:22:37;12.90;;;6.07;;
37241;SDS011;23135;51.078;12.108;2022-12-20T01:25:03;13.68;;;6.30;;
37241;SDS011;23135;51.078;12.108;2022-12-20T01:27:29;16.80;;;7.80;;
37241;SDS011;23135;51.078;12.108;2022-12-20T01:29:55;14.82;;;7.07;;
37241;SDS011;23135;51.078;12.108;2022-12-20T01:32:21;15.73;;;8.07;;
37241;SDS011;23135;51.078;12.108;2022-12-20T01:34:46;17.65;;;8.15;;
37241;SDS011;23135;51.078;12.108;2022-12-20T01:37:12;12.45;;;6.78;;
37241;SDS011;23135;51.078;12.108;2022-12-20T01:39:37;14.65;;;7.60;;
37241;SDS011;23135;51.078;12.108;2022-12-20T01:42:03;16.38;;;7.28;;
37241;SDS011;23135;51.078;12.108;2022-12-20T01:46:55;16.15;;;8.15;;
37241;SDS011;23135;51.078;12.108;2022-12-20T01:49:25;18.05;;;8.77;;
37241;SDS011;23135;51.078;12.108;2022-12-20T01:54:38;19.58;;;9.35;;
37241;SDS011;23135;51.078;12.108;2022-12-20T01:57:07;13.95;;;7.50;;
37241;SDS011;23135;51.078;12.108;2022-12-20T01:59:39;18.45;;;9.13;;
37241;SDS011;23135;51.078;12.108;2022-12-20T02:02:08;16.80;;;8.43;;
37241;SDS011;23135;51.078;12.108;2022-12-20T02:04:36;16.00;;;7.63;;
37241;SDS011;23135;51.078;12.108;2022-12-20T02:07:01;19.10;;;7.95;;
37241;SDS011;23135;51.078;12.108;2022-12-20T02:09:28;15.48;;;8.88;;
37241;SDS011;23135;51.078;12.108;2022-12-20T02:14:51;14.40;;;7.22;;
37241;SDS011;23135;51.078;12.108;2022-12-20T02:31:41;15.55;;;7.10;;
37241;SDS011;23135;51.078;12.108;2022-12-20T02:34:14;13.73;;;7.10;;
37241;SDS011;23135;51.078;12.108;2022-12-20T02:36:41;15.68;;;6.78;;
37241;SDS011;23135;51.078;12.108;2022-12-20T02:39:08;13.73;;;6.00;;
37241;SDS011;23135;51.078;12.108;2022-12-20T02:41:38;14.18;;;7.00;;
37241;SDS011;23135;51.078;12.108;2022-12-20T02:44:09;13.35;;;6.00;;
37241;SDS011;23135;51.078;12.108;2022-12-20T02:46:59;14.48;;;6.78;;
37241;SDS011;23135;51.078;12.108;2022-12-20T02:49:29;11.48;;;5.10;;
37241;SDS011;23135;51.078;12.108;2022-12-20T02:51:58;11.95;;;6.32;;
37241;SDS011;23135;51.078;12.108;2022-12-20T02:54:26;11.48;;;5.90;;
37241;SDS011;23135;51.078;12.108;2022-12-20T02:56:54;16.85;;;7.22;;
37241;SDS011;23135;51.078;12.108;2022-12-20T02:59:31;13.73;;;6.78;;
37241;SDS011;23135;51.078;12.108;2022-12-20T03:02:02;15.20;;;7.30;;
37241;SDS011;23135;51.078;12.108;2022-12-20T03:04:30;13.85;;;7.65;;
37241;SDS011;23135;51.078;12.108;2022-12-20T03:06:59;17.50;;;7.90;;
37241;SDS011;23135;51.078;12.108;2022-12-20T03:09:26;12.63;;;6.90;;
37241;SDS011;23135;51.078;12.108;2022-12-20T03:11:52;12.10;;;6.25;;
37241;SDS011;23135;51.078;12.108;2022-12-20T03:14:18;14.35;;;6.53;;
37241;SDS011;23135;51.078;12.108;2022-12-20T03:16:44;18.23;;;7.93;;
37241;SDS011;23135;51.078;12.108;2022-12-20T03:19:10;15.18;;;6.22;;
37241;SDS011;23135;51.078;12.108;2022-12-20T03:21:35;14.60;;;7.47;;
37241;SDS011;23135;51.078;12.108;2022-12-20T03:24:01;15.48;;;6.68;;
37241;SDS011;23135;51.078;12.108;2022-12-20T03:26:26;16.23;;;8.55;;
37241;SDS011;23135;51.078;12.108;2022-12-20T03:28:52;14.82;;;7.18;;
37241;SDS011;23135;51.078;12.108;2022-12-20T03:31:18;13.77;;;7.90;;
37241;SDS011;23135;51.078;12.108;2022-12-20T03:33:43;15.35;;;7.40;;
37241;SDS011;23135;51.078;12.108;2022-12-20T03:36:09;14.05;;;6.82;;
37241;SDS011;23135;51.078;12.108;2022-12-20T03:38:35;16.65;;;7.20;;
37241;SDS011;23135;51.078;12.108;2022-12-20T03:41:00;11.57;;;6.50;;
37241;SDS011;23135;51.078;12.108;2022-12-20T03:43:26;16.67;;;6.80;;
37241;SDS011;23135;51.078;12.108;2022-12-20T03:45:52;14.57;;;7.80;;
37241;SDS011;23135;51.078;12.108;2022-12-20T03:48:17;13.95;;;6.97;;
37241;SDS011;23135;51.078;12.108;2022-12-20T03:50:43;13.95;;;6.07;;
37241;SDS011;23135;51.078;12.108;2022-12-20T03:53:08;14.93;;;6.95;;
37241;SDS011;23135;51.078;12.108;2022-12-20T03:55:34;15.07;;;7.90;;
37241;SDS011;23135;51.078;12.108;2022-12-20T03:58:00;13.13;;;5.82;;
37241;SDS011;23135;51.078;12.108;2022-12-20T04:00:26;16.13;;;7.05;;
37241;SDS011;23135;51.078;12.108;2022-12-20T04:02:51;19.52;;;8.07;;
37241;SDS011;23135;51.078;12.108;2022-12-20T04:05:17;15.50;;;7.30;;
37241;SDS011;23135;51.078;12.108;2022-12-20T04:07:43;15.50;;;6.32;;
37241;SDS011;23135;51.078;12.108;2022-12-20T04:10:09;15.95;;;7.97;;
37241;SDS011;23135;51.078;12.108;2022-12-20T04:12:35;12.75;;;7.22;;
37241;SDS011;23135;51.078;12.108;2022-12-20T04:15:01;16.75;;;8.15;;
37241;SDS011;23135;51.078;12.108;2022-12-20T04:17:27;8.20;;;4.50;;
37241;SDS011;23135;51.078;12.108;2022-12-20T04:19:52;13.48;;;7.07;;
37241;SDS011;23135;51.078;12.108;2022-12-20T04:22:18;16.20;;;7.70;;
37241;SDS011;23135;51.078;12.108;2022-12-20T04:24:43;14.20;;;7.07;;
37241;SDS011;23135;51.078;12.108;2022-12-20T04:27:09;12.13;;;6.63;;
37241;SDS011;23135;51.078;12.108;2022-12-20T04:29:35;12.90;;;7.00;;
37241;SDS011;23135;51.078;12.108;2022-12-20T04:32:00;17.98;;;7.38;;
37241;SDS011;23135;51.078;12.108;2022-12-20T04:34:26;13.32;;;7.25;;
37241;SDS011;23135;51.078;12.108;2022-12-20T04:36:52;13.98;;;6.82;;
37241;SDS011;23135;51.078;12.108;2022-12-20T04:39:17;13.25;;;7.00;;
37241;SDS011;23135;51.078;12.108;2022-12-20T04:41:43;16.98;;;8.25;;
37241;SDS011;23135;51.078;12.108;2022-12-20T04:44:09;18.38;;;7.05;;
37241;SDS011;23135;51.078;12.108;2022-12-20T04:46:34;14.02;;;7.72;;
37241;SDS011;23135;51.078;12.108;2022-12-20T04:49:00;11.70;;;6.00;;
37241;SDS011;23135;51.078;12.108;2022-12-20T04:51:26;11.75;;;6.85;;
37241;SDS011;23135;51.078;12.108;2022-12-20T04:53:52;16.90;;;7.65;;
37241;SDS011;23135;51.078;12.108;2022-12-20T04:56:26;13.23;;;6.47;;
37241;SDS011;23135;51.078;12.108;2022-12-20T04:58:53;15.45;;;7.43;;
37241;SDS011;23135;51.078;12.108;2022-12-20T05:01:20;8.40;;;4.78;;
37241;SDS011;23135;51.078;12.108;2022-12-20T05:03:46;14.20;;;5.60;;
37241;SDS011;23135;51.078;12.108;2022-12-20T05:06:12;12.70;;;6.78;;
37241;SDS011;23135;51.078;12.108;2022-12-20T05:08:38;14.15;;;7.28;;
37241;SDS011;23135;51.078;12.108;2022-12-20T05:11:04;14.32;;;7.60;;
37241;SDS011;23135;51.078;12.108;2022-12-20T05:13:30;15.20;;;7.10;;
37241;SDS011;23135;51.078;12.108;2022-12-20T05:15:57;12.55;;;6.63;;
37241;SDS011;23135;51.078;12.108;2022-12-20T05:18:23;10.75;;;5.57;;
37241;SDS011;23135;51.078;12.108;2022-12-20T05:20:50;12.88;;;6.00;;
37241;SDS011;23135;51.078;12.108;2022-12-20T05:23:39;15.43;;;6.88;;
37241;SDS011;23135;51.078;12.108;2022-12-20T05:26:23;15.23;;;6.47;;
37241;SDS011;23135;51.078;12.108;2022-12-20T05:28:51;10.32;;;5.00;;
37241;SDS011;23135;51.078;12.108;2022-12-20T05:31:16;11.93;;;6.63;;
37241;SDS011;23135;51.078;12.108;2022-12-20T05:33:42;11.23;;;6.45;;
37241;SDS011;23135;51.078;12.108;2022-12-20T05:36:08;10.45;;;5.57;;
37241;SDS011;23135;51.078;12.108;2022-12-20T05:38:33;15.43;;;5.90;;
37241;SDS011;23135;51.078;12.108;2022-12-20T05:40:59;13.93;;;6.43;;
37241;SDS011;23135;51.078;12.108;2022-12-20T05:43:25;14.88;;;6.95;;
37241;SDS011;23135;51.078;12.108;2022-12-20T05:45:51;14.90;;;6.57;;
37241;SDS011;23135;51.078;12.108;2022-12-20T05:48:17;12.65;;;7.53;;
37241;SDS011;23135;51.078;12.108;2022-12-20T05:50:47;15.63;;;6.00;;
37241;SDS011;23135;51.078;12.108;2022-12-20T05:53:13;14.02;;;7.25;;
37241;SDS011;23135;51.078;12.108;2022-12-20T05:55:44;14.02;;;6.28;;
37241;SDS011;23135;51.078;12.108;2022-12-20T05:58:12;12.30;;;5.03;;
37241;SDS011;23135;51.078;12.108;2022-12-20T06:00:41;13.15;;;6.60;;
37241;SDS011;23135;51.078;12.108;2022-12-20T06:03:08;9.20;;;5.25;;
37241;SDS011;23135;51.078;12.108;2022-12-20T06:06:23;20.70;;;6.60;;
37241;SDS011;23135;51.078;12.108;2022-12-20T06:08:48;12.85;;;6.45;;
37241;SDS011;23135;51.078;12.108;2022-12-20T06:11:14;13.48;;;5.63;;
37241;SDS011;23135;51.078;12.108;2022-12-20T06:13:40;9.18;;;4.85;;
37241;SDS011;23135;51.078;12.108;2022-12-20T06:16:05;17.00;;;6.00;;
37241;SDS011;23135;51.078;12.108;2022-12-20T06:18:31;14.93;;;7.18;;
37241;SDS011;23135;51.078;12.108;2022-12-20T06:20:57;14.40;;;6.50;;
37241;SDS011;23135;51.078;12.108;2022-12-20T06:23:22;9.32;;;5.15;;
37241;SDS011;23135;51.078;12.108;2022-12-20T06:25:48;11.27;;;5.70;;
37241;SDS011;23135;51.078;12.108;2022-12-20T06:28:14;12.00;;;6.22;;
37241;SDS011;23135;51.078;12.108;2022-12-20T06:30:50;13.48;;;5.20;;
37241;SDS011;23135;51.078;12.108;2022-12-20T06:33:17;12.90;;;7.18;;
37241;SDS011;23135;51.078;12.108;2022-12-20T06:35:42;12.73;;;5.57;;
37241;SDS011;23135;51.078;12.108;2022-12-20T06:38:08;16.60;;;5.90;;
37241;SDS011;23135;51.078;12.108;2022-12-20T06:40:33;10.48;;;5.25;;
37241;SDS011;23135;51.078;12.108;2022-12-20T06:42:59;7.47;;;3.95;;
37241;SDS011;23135;51.078;12.108;2022-12-20T06:45:25;10.02;;;5.45;;
37241;SDS011;23135;51.078;12.108;2022-12-20T06:47:50;12.23;;;5.47;;
37241;SDS011;23135;51.078;12.108;2022-12-20T06:50:16;12.48;;;6.00;;
37241;SDS011;23135;51.078;12.108;2022-12-20T06:52:41;12.98;;;5.10;;
37241;SDS011;23135;51.078;12.108;2022-12-20T06:55:07;8.25;;;5.45;;
37241;SDS011;23135;51.078;12.108;2022-12-20T06:57:33;12.35;;;6.50;;
37241;SDS011;23135;51.078;12.108;2022-12-20T06:59:58;10.80;;;6.43;;
37241;SDS011;23135;51.078;12.108;2022-12-20T07:02:24;12.55;;;6.53;;
37241;SDS011;23135;51.078;12.108;2022-12-20T07:04:50;14.15;;;6.88;;
37241;SDS011;23135;51.078;12.108;2022-12-20T07:07:15;14.52;;;5.90;;
37241;SDS011;23135;51.078;12.108;2022-12-20T07:09:41;16.17;;;7.28;;
37241;SDS011;23135;51.078;12.108;2022-12-20T07:12:07;15.00;;;8.15;;
37241;SDS011;23135;51.078;12.108;2022-12-20T07:14:33;17.38;;;7.20;;
37241;SDS011;23135;51.078;12.108;2022-12-20T07:16:59;16.33;;;7.63;;
37241;SDS011;23135;51.078;12.108;2022-12-20T07:19:25;17.20;;;7.45;;
37241;SDS011;23135;51.078;12.108;2022-12-20T07:21:50;11.57;;;5.75;;
37241;SDS011;23135;51.078;12.108;2022-12-20T07:24:16;12.43;;;6.32;;
37241;SDS011;23135;51.078;12.108;2022-12-20T07:26:45;10.63;;;5.78;;
37241;SDS011;23135;51.078;12.108;2022-12-20T07:29:11;13.93;;;5.75;;
37241;SDS011;23135;51.078;12.108;2022-12-20T07:31:37;12.40;;;5.90;;
37241;SDS011;23135;51.078;12.108;2022-12-20T07:34:03;14.50;;;6.32;;
37241;SDS011;23135;51.078;12.108;2022-12-20T07:36:29;12.27;;;6.80;;
37241;SDS011;23135;51.078;12.108;2022-12-20T07:38:55;13.50;;;5.53;;
37241;SDS011;23135;51.078;12.108;2022-12-20T07:41:20;12.30;;;5.93;;
37241;SDS011;23135;51.078;12.108;2022-12-20T07:43:46;17.65;;;8.30;;
37241;SDS011;23135;51.078;12.108;2022-12-20T07:46:12;15.32;;;8.23;;
37241;SDS011;23135;51.078;12.108;2022-12-20T07:48:39;18.45;;;8.93;;
37241;SDS011;23135;51.078;12.108;2022-12-20T07:51:06;11.40;;;6.43;;
37241;SDS011;23135;51.078;12.108;2022-12-20T07:53:36;18.27;;;7.05;;
37241;SDS011;23135;51.078;12.108;2022-12-20T07:56:06;18.63;;;7.43;;
37241;SDS011;23135;51.078;12.108;2022-12-20T07:58:33;14.30;;;7.97;;
37241;SDS011;23135;51.078;12.108;2022-12-20T08:01:01;15.40;;;8.25;;
37241;SDS011;23135;51.078;12.108;2022-12-20T08:03:32;16.77;;;7.85;;
37241;SDS011;23135;51.078;12.108;2022-12-20T08:06:04;18.60;;;7.63;;
37241;SDS011;23135;51.078;12.108;2022-12-20T08:08:31;12.85;;;6.25;;
37241;SDS011;23135;51.078;12.108;2022-12-20T08:11:00;15.77;;;7.63;;
37241;SDS011;23135;51.078;12.108;2022-12-20T08:13:26;10.52;;;5.30;;
37241;SDS011;23135;51.078;12.108;2022-12-20T08:15:52;16.35;;;7.35;;
37241;SDS011;23135;51.078;12.108;2022-12-20T08:18:18;15.50;;;8.40;;
37241;SDS011;23135;51.078;12.108;2022-12-20T08:20:43;15.13;;;7.38;;
37241;SDS011;23135;51.078;12.108;2022-12-20T08:23:09;15.82;;;7.68;;
37241;SDS011;23135;51.078;12.108;2022-12-20T08:25:35;15.75;;;7.45;;
37241;SDS011;23135;51.078;12.108;2022-12-20T08:28:01;14.32;;;7.75;;
37241;SDS011;23135;51.078;12.108;2022-12-20T08:30:28;13.40;;;8.40;;
37241;SDS011;23135;51.078;12.108;2022-12-20T08:32:54;12.30;;;7.07;;
37241;SDS011;23135;51.078;12.108;2022-12-20T08:35:20;14.52;;;7.70;;
37241;SDS011;23135;51.078;12.108;2022-12-20T08:37:47;15.30;;;7.82;;
37241;SDS011;23135;51.078;12.108;2022-12-20T08:40:15;15.23;;;7.95;;
37241;SDS011;23135;51.078;12.108;2022-12-20T08:42:40;15.43;;;7.97;;
37241;SDS011;23135;51.078;12.108;2022-12-20T08:45:06;10.82;;;6.38;;
37241;SDS011;23135;51.078;12.108;2022-12-20T08:47:32;24.35;;;8.73;;
37241;SDS011;23135;51.078;12.108;2022-12-20T08:49:58;13.80;;;7.30;;
37241;SDS011;23135;51.078;12.108;2022-12-20T08:52:23;17.20;;;8.70;;
37241;SDS011;23135;51.078;12.108;2022-12-20T08:54:49;17.35;;;8.02;;
37241;SDS011;23135;51.078;12.108;2022-12-20T08:57:15;19.70;;;10.73;;
37241;SDS011;23135;51.078;12.108;2022-12-20T08:59:41;19.52;;;10.07;;
37241;SDS011;23135;51.078;12.108;2022-12-20T09:02:07;18.15;;;8.55;;
37241;SDS011;23135;51.078;12.108;2022-12-20T09:04:32;22.15;;;11.32;;
37241;SDS011;23135;51.078;12.108;2022-12-20T09:06:58;19.10;;;9.43;;
37241;SDS011;23135;51.078;12.108;2022-12-20T09:09:24;27.08;;;13.30;;
37241;SDS011;23135;51.078;12.108;2022-12-20T09:11:49;17.23;;;9.63;;
37241;SDS011;23135;51.078;12.108;2022-12-20T09:14:15;18.80;;;8.25;;
37241;SDS011;23135;51.078;12.108;2022-12-20T09:16:41;17.70;;;8.63;;
37241;SDS011;23135;51.078;12.108;2022-12-20T09:19:09;17.25;;;9.48;;
37241;SDS011;23135;51.078;12.108;2022-12-20T09:21:37;20.58;;;10.65;;
37241;SDS011;23135;51.078;12.108;2022-12-20T09:24:03;18.13;;;9.50;;
37241;SDS011;23135;51.078;12.108;2022-12-20T09:26:30;18.27;;;8.63;;
37241;SDS011;23135;51.078;12.108;2022-12-20T09:28:56;17.75;;;8.45;;
37241;SDS011;23135;51.078;12.108;2022-12-20T09:31:23;14.80;;;7.85;;
37241;SDS011;23135;51.078;12.108;2022-12-20T09:33:52;11.43;;;7.30;;
37241;SDS011;23135;51.078;12.108;2022-12-20T09:36:20;17.52;;;7.75;;
37241;SDS011;23135;51.078;12.108;2022-12-20T09:38:47;18.30;;;7.90;;
37241;SDS011;23135;51.078;12.108;2022-12-20T09:41:59;16.90;;;8.32;;
37241;SDS011;23135;51.078;12.108;2022-12-20T09:44:10;17.00;;;7.82;;
37241;SDS011;23135;51.078;12.108;2022-12-20T09:46:58;17.77;;;8.05;;
37241;SDS011;23135;51.078;12.108;2022-12-20T09:49:28;15.85;;;7.68;;
37241;SDS011;23135;51.078;12.108;2022-12-20T09:54:34;15.30;;;8.18;;
37241;SDS011;23135;51.078;12.108;2022-12-20T09:57:19;15.73;;;9.98;;
37241;SDS011;23135;51.078;12.108;2022-12-20T10:00:11;22.80;;;9.10;;
37241;SDS011;23135;51.078;12.108;2022-12-20T10:02:38;17.83;;;8.57;;
37241;SDS011;23135;51.078;12.108;2022-12-20T10:05:05;18.95;;;9.75;;
37241;SDS011;23135;51.078;12.108;2022-12-20T10:15:37;16.92;;;10.35;;
37241;SDS011;23135;51.078;12.108;2022-12-20T10:26:22;47.25;;;26.00;;
37241;SDS011;23135;51.078;12.108;2022-12-20T10:28:47;33.22;;;20.63;;
37241;SDS011;23135;51.078;12.108;2022-12-20T10:31:15;32.95;;;17.70;;
37241;SDS011;23135;51.078;12.108;2022-12-20T10:33:42;30.95;;;15.80;;
37241;SDS011;23135;51.078;12.108;2022-12-20T10:38:44;30.52;;;17.05;;
37241;SDS011;23135;51.078;12.108;2022-12-20T10:41:16;48.10;;;27.10;;
37241;SDS011;23135;51.078;12.108;2022-12-20T10:43:48;29.77;;;15.35;;
37241;SDS011;23135;51.078;12.108;2022-12-20T10:46:20;26.65;;;14.63;;
37241;SDS011;23135;51.078;12.108;2022-12-20T10:48:46;40.42;;;20.15;;
37241;SDS011;23135;51.078;12.108;2022-12-20T10:51:17;19.70;;;10.38;;
37241;SDS011;23135;51.078;12.108;2022-12-20T10:53:58;20.27;;;9.18;;
37241;SDS011;23135;51.078;12.108;2022-12-20T10:58:55;17.25;;;8.70;;
37241;SDS011;23135;51.078;12.108;2022-12-20T11:01:25;18.42;;;8.82;;
37241;SDS011;23135;51.078;12.108;2022-12-20T11:04:01;16.90;;;8.77;;
37241;SDS011;23135;51.078;12.108;2022-12-20T11:14:35;17.38;;;9.77;;
37241;SDS011;23135;51.078;12.108;2022-12-20T11:17:06;17.23;;;9.05;;
37241;SDS011;23135;51.078;12.108;2022-12-20T11:33:53;16.13;;;6.57;;
37241;SDS011;23135;51.078;12.108;2022-12-20T11:39:33;13.10;;;6.75;;
37241;SDS011;23135;51.078;12.108;2022-12-20T11:42:21;12.85;;;6.00;;
37241;SDS011;23135;51.078;12.108;2022-12-20T11:47:55;16.30;;;7.37;;
37241;SDS011;23135;51.078;12.108;2022-12-20T11:55:51;13.50;;;6.60;;
37241;SDS011;23135;51.078;12.108;2022-12-20T11:58:32;16.35;;;6.82;;
37241;SDS011;23135;51.078;12.108;2022-12-20T12:01:13;16.02;;;7.90;;
37241;SDS011;23135;51.078;12.108;2022-12-20T12:03:48;12.50;;;5.55;;
37241;SDS011;23135;51.078;12.108;2022-12-20T12:06:20;13.30;;;6.32;;
37241;SDS011;23135;51.078;12.108;2022-12-20T12:12:10;13.50;;;6.15;;
37241;SDS011;23135;51.078;12.108;2022-12-20T12:17:23;14.10;;;6.38;;
37241;SDS011;23135;51.078;12.108;2022-12-20T12:22:39;13.43;;;5.95;;
37241;SDS011;23135;51.078;12.108;2022-12-20T12:25:07;16.13;;;7.03;;
37241;SDS011;23135;51.078;12.108;2022-12-20T12:27:38;15.48;;;8.35;;
37241;SDS011;23135;51.078;12.108;2022-12-20T12:30:04;16.35;;;7.57;;
37241;SDS011;23135;51.078;12.108;2022-12-20T12:32:36;11.98;;;6.88;;
37241;SDS011;23135;51.078;12.108;2022-12-20T12:38:14;15.55;;;7.68;;
37241;SDS011;23135;51.078;12.108;2022-12-20T12:40:56;15.30;;;8.35;;
37241;SDS011;23135;51.078;12.108;2022-12-20T12:43:44;16.35;;;7.40;;
37241;SDS011;23135;51.078;12.108;2022-12-20T12:51:23;16.40;;;8.73;;
37241;SDS011;23135;51.078;12.108;2022-12-20T12:53:53;13.52;;;6.60;;
37241;SDS011;23135;51.078;12.108;2022-12-20T13:04:28;16.35;;;7.80;;
37241;SDS011;23135;51.078;12.108;2022-12-20T13:07:24;15.25;;;8.02;;
37241;SDS011;23135;51.078;12.108;2022-12-20T13:17:45;12.25;;;5.80;;
37241;SDS011;23135;51.078;12.108;2022-12-20T13:20:44;14.43;;;7.40;;
37241;SDS011;23135;51.078;12.108;2022-12-20T13:37:53;17.33;;;8.27;;
37241;SDS011;23135;51.078;12.108;2022-12-20T13:45:50;16.25;;;6.90;;
37241;SDS011;23135;51.078;12.108;2022-12-20T13:48:35;17.88;;;8.07;;
37241;SDS011;23135;51.078;12.108;2022-12-20T13:51:17;15.10;;;6.63;;
37241;SDS011;23135;51.078;12.108;2022-12-20T13:54:04;13.00;;;7.03;;
37241;SDS011;23135;51.078;12.108;2022-12-20T13:59:16;15.00;;;6.80;;
37241;SDS011;23135;51.078;12.108;2022-12-20T14:01:47;19.48;;;8.77;;
37241;SDS011;23135;51.078;12.108;2022-12-20T14:04:14;16.95;;;7.65;;
37241;SDS011;23135;51.078;12.108;2022-12-20T14:06:41;18.83;;;8.85;;
37241;SDS011;23135;51.078;12.108;2022-12-20T14:09:26;11.90;;;7.00;;
37241;SDS011;23135;51.078;12.108;2022-12-20T14:12:08;20.65;;;7.05;;
37241;SDS011;23135;51.078;12.108;2022-12-20T14:14:38;14.15;;;6.55;;
37241;SDS011;23135;51.078;12.108;2022-12-20T14:17:15;15.82;;;7.97;;
37241;SDS011;23135;51.078;12.108;2022-12-20T14:19:41;17.92;;;8.70;;
37241;SDS011;23135;51.078;12.108;2022-12-20T14:22:08;18.90;;;8.23;;
37241;SDS011;23135;51.078;12.108;2022-12-20T14:24:36;16.25;;;7.15;;
37241;SDS011;23135;51.078;12.108;2022-12-20T14:27:03;20.70;;;8.82;;
37241;SDS011;23135;51.078;12.108;2022-12-20T14:29:29;17.83;;;8.20;;
37241;SDS011;23135;51.078;12.108;2022-12-20T14:31:56;19.27;;;8.25;;
37241;SDS011;23135;51.078;12.108;2022-12-20T14:34:25;13.23;;;5.57;;
37241;SDS011;23135;51.078;12.108;2022-12-20T14:37:16;12.93;;;6.57;;
37241;SDS011;23135;51.078;12.108;2022-12-20T14:39:54;15.32;;;6.72;;
37241;SDS011;23135;51.078;12.108;2022-12-20T14:42:26;17.17;;;6.95;;
37241;SDS011;23135;51.078;12.108;2022-12-20T14:47:40;13.70;;;5.72;;
37241;SDS011;23135;51.078;12.108;2022-12-20T14:50:20;13.82;;;7.22;;
37241;SDS011;23135;51.078;12.108;2022-12-20T14:52:54;15.80;;;7.10;;
37241;SDS011;23135;51.078;12.108;2022-12-20T14:55:21;14.95;;;7.82;;
37241;SDS011;23135;51.078;12.108;2022-12-20T14:57:58;12.23;;;6.57;;
37241;SDS011;23135;51.078;12.108;2022-12-20T15:00:25;22.05;;;12.88;;
37241;SDS011;23135;51.078;12.108;2022-12-20T15:08:10;20.60;;;10.00;;
37241;SDS011;23135;51.078;12.108;2022-12-20T15:10:35;20.98;;;11.68;;
37241;SDS011;23135;51.078;12.108;2022-12-20T15:13:01;15.07;;;7.18;;
37241;SDS011;23135;51.078;12.108;2022-12-20T15:15:27;14.88;;;7.63;;
37241;SDS011;23135;51.078;12.108;2022-12-20T15:17:52;17.92;;;9.50;;
37241;SDS011;23135;51.078;12.108;2022-12-20T15:20:18;16.70;;;8.13;;
37241;SDS011;23135;51.078;12.108;2022-12-20T15:22:45;17.65;;;8.15;;
37241;SDS011;23135;51.078;12.108;2022-12-20T15:25:13;15.75;;;8.10;;
37241;SDS011;23135;51.078;12.108;2022-12-20T15:27:40;18.48;;;7.45;;
37241;SDS011;23135;51.078;12.108;2022-12-20T15:30:09;20.83;;;8.70;;
37241;SDS011;23135;51.078;12.108;2022-12-20T15:32:37;11.90;;;6.07;;
37241;SDS011;23135;51.078;12.108;2022-12-20T15:35:04;17.30;;;8.68;;
37241;SDS011;23135;51.078;12.108;2022-12-20T15:37:30;18.35;;;9.23;;
37241;SDS011;23135;51.078;12.108;2022-12-20T15:39:55;18.92;;;7.82;;
37241;SDS011;23135;51.078;12.108;2022-12-20T15:42:21;18.92;;;8.60;;
37241;SDS011;23135;51.078;12.108;2022-12-20T15:44:48;18.63;;;8.13;;
37241;SDS011;23135;51.078;12.108;2022-12-20T15:47:14;17.85;;;9.25;;
37241;SDS011;23135;51.078;12.108;2022-12-20T15:49:41;20.77;;;7.40;;
37241;SDS011;23135;51.078;12.108;2022-12-20T15:52:08;15.50;;;8.02;;
37241;SDS011;23135;51.078;12.108;2022-12-20T15:54:39;18.02;;;7.25;;
37241;SDS011;23135;51.078;12.108;2022-12-20T15:57:05;13.60;;;6.93;;
37241;SDS011;23135;51.078;12.108;2022-12-20T15:59:35;17.02;;;7.55;;
37241;SDS011;23135;51.078;12.108;2022-12-20T16:02:00;28.17;;;9.82;;
37241;SDS011;23135;51.078;12.108;2022-12-20T16:04:26;15.18;;;8.05;;
37241;SDS011;23135;51.078;12.108;2022-12-20T16:06:55;17.50;;;7.65;;
37241;SDS011;23135;51.078;12.108;2022-12-20T16:09:20;14.32;;;7.18;;
37241;SDS011;23135;51.078;12.108;2022-12-20T16:11:49;15.68;;;8.77;;
37241;SDS011;23135;51.078;12.108;2022-12-20T16:14:16;15.13;;;6.22;;
37241;SDS011;23135;51.078;12.108;2022-12-20T16:16:45;13.25;;;7.22;;
37241;SDS011;23135;51.078;12.108;2022-12-20T16:19:12;15.90;;;7.53;;
37241;SDS011;23135;51.078;12.108;2022-12-20T16:21:43;19.25;;;8.02;;
37241;SDS011;23135;51.078;12.108;2022-12-20T16:24:14;17.23;;;7.30;;
37241;SDS011;23135;51.078;12.108;2022-12-20T16:26:41;18.27;;;6.55;;
37241;SDS011;23135;51.078;12.108;2022-12-20T16:29:07;19.70;;;9.27;;
37241;SDS011;23135;51.078;12.108;2022-12-20T16:31:37;20.92;;;10.45;;
37241;SDS011;23135;51.078;12.108;2022-12-20T16:34:04;15.82;;;8.38;;
37241;SDS011;23135;51.078;12.108;2022-12-20T16:36:33;14.50;;;5.88;;
37241;SDS011;23135;51.078;12.108;2022-12-20T16:38:59;16.15;;;7.15;;
37241;SDS011;23135;51.078;12.108;2022-12-20T16:41:28;14.95;;;6.93;;
37241;SDS011;23135;51.078;12.108;2022-12-20T16:43:56;22.80;;;9.07;;
37241;SDS011;23135;51.078;12.108;2022-12-20T16:46:23;17.85;;;8.32;;
37241;SDS011;23135;51.078;12.108;2022-12-20T16:48:51;15.63;;;7.68;;
37241;SDS011;23135;51.078;12.108;2022-12-20T16:53:46;17.83;;;6.85;;
37241;SDS011;23135;51.078;12.108;2022-12-20T16:56:12;20.17;;;7.35;;